Time;durP1;ratioP1;P1;durP2;ratioP2;P2;SDS_P1;SDS_P2;PMS_P1;PMS_P2;Temp;Humidity;BMP_temperature;BMP_pressure;BME280_temperature;BME280_humidity;BME280_pressure;Samples;Min_cycle;Max_cycle;Signal;HPM_P1;HPM_P2
2022/04/26 03:36:15;;;;;;;10.68;5.47;;;;;;;;;;5043768;28;20076;-75
2022/04/26 03:38:43;;;;;;;14.98;5.47;;;;;;;;;;5046031;28;20131;-75
2022/04/26 03:41:10;;;;;;;13.55;5.63;;;;;;;;;;5027124;28;20053;-74
2022/04/26 03:43:36;;;;;;;10.13;5.20;;;;;;;;;;5031022;28;20615;-76
2022/04/26 03:46:03;;;;;;;11.20;5.63;;;;;;;;;;5045424;28;20061;-76
2022/04/26 03:48:30;;;;;;;15.15;6.07;;;;;;;;;;5044063;28;20061;-75
2022/04/26 03:50:56;;;;;;;10.07;6.43;;;;;;;;;;5045392;28;20115;-76
2022/04/26 03:53:23;;;;;;;12.52;6.70;;;;;;;;;;5045442;28;20049;-75
2022/04/26 03:55:49;;;;;;;18.08;6.97;;;;;;;;;;5046492;28;20584;-75
2022/04/26 03:58:16;;;;;;;12.82;6.65;;;;;;;;;;5043615;28;20053;-75
2022/04/26 04:00:42;;;;;;;13.70;6.80;;;;;;;;;;5044961;28;20182;-75
2022/04/26 04:03:09;;;;;;;14.85;6.70;;;;;;;;;;5041884;28;20563;-75
2022/04/26 04:05:36;;;;;;;12.90;6.72;;;;;;;;;;5042309;28;20053;-75
2022/04/26 04:08:02;;;;;;;16.80;6.88;;;;;;;;;;5041132;28;20136;-75
2022/04/26 04:10:29;;;;;;;13.65;6.53;;;;;;;;;;5045951;28;20096;-75
2022/04/26 04:12:55;;;;;;;12.32;6.63;;;;;;;;;;5044032;28;20057;-75
2022/04/26 04:15:22;;;;;;;14.55;6.72;;;;;;;;;;5040670;28;20544;-75
2022/04/26 04:17:48;;;;;;;12.80;6.57;;;;;;;;;;5044540;28;20607;-75
2022/04/26 04:20:15;;;;;;;13.48;6.70;;;;;;;;;;5045508;28;20049;-76
2022/04/26 04:22:42;;;;;;;12.18;6.75;;;;;;;;;;5045028;28;20500;-74
2022/04/26 04:25:08;;;;;;;17.80;7.18;;;;;;;;;;5044703;28;20057;-74
2022/04/26 04:27:35;;;;;;;13.05;7.50;;;;;;;;;;5044513;28;20053;-75
2022/04/26 04:30:02;;;;;;;12.95;7.15;;;;;;;;;;5044251;28;20599;-76
2022/04/26 04:32:29;;;;;;;16.02;7.55;;;;;;;;;;5042411;28;20073;-75
2022/04/26 04:34:58;;;;;;;16.90;7.55;;;;;;;;;;5045509;28;20061;-75
2022/04/26 04:37:24;;;;;;;14.23;7.78;;;;;;;;;;5046521;28;20538;-74
2022/04/26 04:39:51;;;;;;;13.57;8.32;;;;;;;;;;5048571;28;20059;-74
2022/04/26 04:42:18;;;;;;;19.15;8.68;;;;;;;;;;5049031;28;20112;-74
2022/04/26 04:44:44;;;;;;;16.95;8.60;;;;;;;;;;5047577;28;20130;-76
2022/04/26 04:47:11;;;;;;;16.83;8.80;;;;;;;;;;5039018;28;20104;-76
2022/04/26 04:49:37;;;;;;;15.98;8.70;;;;;;;;;;5046967;28;20879;-75
2022/04/26 04:52:04;;;;;;;20.13;9.68;;;;;;;;;;5048713;28;20136;-75
2022/04/26 04:54:30;;;;;;;21.15;9.50;;;;;;;;;;5047956;28;20566;-75
2022/04/26 04:56:57;;;;;;;18.58;9.85;;;;;;;;;;5047721;28;20049;-76
2022/04/26 04:59:23;;;;;;;16.58;9.52;;;;;;;;;;5048483;28;20108;-76
2022/04/26 05:01:50;;;;;;;19.35;9.55;;;;;;;;;;5046091;28;20143;-76
2022/04/26 05:04:16;;;;;;;18.58;9.50;;;;;;;;;;5044400;28;20612;-76
2022/04/26 05:06:42;;;;;;;18.77;9.15;;;;;;;;;;5030875;28;20054;-76
2022/04/26 05:09:09;;;;;;;15.13;8.88;;;;;;;;;;5047130;28;20049;-76
2022/04/26 05:11:35;;;;;;;18.88;9.88;;;;;;;;;;5046987;28;20054;-76
2022/04/26 05:14:02;;;;;;;16.65;9.35;;;;;;;;;;5047281;28;20111;-75
2022/04/26 05:16:28;;;;;;;21.95;9.68;;;;;;;;;;5046582;28;20053;-76
2022/04/26 05:18:55;;;;;;;14.95;8.50;;;;;;;;;;5046674;28;20504;-76
2022/04/26 05:21:21;;;;;;;15.95;9.07;;;;;;;;;;5043469;28;20058;-75
2022/04/26 05:26:33;;;;;;;17.52;8.88;;;;;;;;;;5047651;28;20590;-77
2022/04/26 05:29:01;;;;;;;17.40;8.85;;;;;;;;;;5047775;28;20078;-76
2022/04/26 05:31:27;;;;;;;17.65;9.07;;;;;;;;;;5048378;28;20453;-76
2022/04/26 05:33:53;;;;;;;21.70;9.00;;;;;;;;;;5048228;28;20060;-76
2022/04/26 05:36:20;;;;;;;16.98;7.78;;;;;;;;;;5046841;28;20070;-76
2022/04/26 05:38:46;;;;;;;17.92;8.30;;;;;;;;;;5039630;28;20065;-76
2022/04/26 05:41:13;;;;;;;15.65;8.07;;;;;;;;;;5027807;28;20057;-76
2022/04/26 05:43:40;;;;;;;17.63;8.45;;;;;;;;;;5044838;28;20060;-76
2022/04/26 05:46:10;;;;;;;15.00;7.80;;;;;;;;;;5041460;28;20053;-76
2022/04/26 05:48:36;;;;;;;18.90;7.45;;;;;;;;;;5043654;28;20586;-77
2022/04/26 05:51:03;;;;;;;16.83;7.45;;;;;;;;;;5045429;28;20906;-76
2022/04/26 05:53:30;;;;;;;16.33;7.45;;;;;;;;;;5033885;28;20255;-77
2022/04/26 05:55:56;;;;;;;15.38;6.75;;;;;;;;;;5039261;28;20519;-76
2022/04/26 05:58:22;;;;;;;14.70;7.50;;;;;;;;;;5037738;28;20088;-76
2022/04/26 06:00:49;;;;;;;19.48;7.68;;;;;;;;;;5045578;28;20566;-76
2022/04/26 06:03:15;;;;;;;17.08;7.60;;;;;;;;;;5038926;28;20054;-76
2022/04/26 06:05:42;;;;;;;17.95;6.68;;;;;;;;;;5045301;28;20920;-78
2022/04/26 06:08:09;;;;;;;17.17;7.28;;;;;;;;;;5046937;28;20057;-77
2022/04/26 06:10:39;;;;;;;16.92;7.03;;;;;;;;;;5044721;28;20100;-76
2022/04/26 06:13:06;;;;;;;16.65;7.18;;;;;;;;;;5032914;28;20053;-76
2022/04/26 06:15:33;;;;;;;14.63;6.72;;;;;;;;;;5046353;28;20076;-77
2022/04/26 06:17:59;;;;;;;11.73;6.65;;;;;;;;;;5043971;28;20054;-76
2022/04/26 06:20:26;;;;;;;15.57;7.15;;;;;;;;;;5040185;28;20054;-76
2022/04/26 06:22:53;;;;;;;14.07;6.53;;;;;;;;;;5048095;28;20065;-76
2022/04/26 06:25:20;;;;;;;14.07;7.45;;;;;;;;;;5047311;28;20054;-76
2022/04/26 06:27:47;;;;;;;18.58;7.35;;;;;;;;;;5046548;28;20480;-76
2022/04/26 06:30:15;;;;;;;13.43;6.35;;;;;;;;;;5041524;28;20603;-78
2022/04/26 06:32:43;;;;;;;16.42;6.55;;;;;;;;;;5048297;28;20099;-75
2022/04/26 06:35:09;;;;;;;13.13;6.50;;;;;;;;;;5037047;28;20045;-76
2022/04/26 06:37:36;;;;;;;13.73;6.18;;;;;;;;;;5044077;28;20576;-78
2022/04/26 06:40:06;;;;;;;13.85;5.95;;;;;;;;;;5041735;28;21273;-76
2022/04/26 06:42:32;;;;;;;16.63;6.30;;;;;;;;;;5044986;28;20144;-76
2022/04/26 06:44:58;;;;;;;14.75;6.90;;;;;;;;;;5048449;28;20828;-77
2022/04/26 06:47:25;;;;;;;18.95;6.35;;;;;;;;;;5040412;28;20135;-76
2022/04/26 06:49:51;;;;;;;12.95;6.05;;;;;;;;;;5048915;28;20553;-77
2022/04/26 06:52:18;;;;;;;14.98;6.00;;;;;;;;;;5046824;28;20149;-78
2022/04/26 06:54:45;;;;;;;13.13;6.05;;;;;;;;;;5042589;28;20608;-77
2022/04/26 06:57:12;;;;;;;14.25;5.65;;;;;;;;;;5035823;28;20057;-76
2022/04/26 06:59:39;;;;;;;14.65;5.50;;;;;;;;;;5040468;28;20108;-76
2022/04/26 07:02:05;;;;;;;12.98;5.57;;;;;;;;;;5037576;28;20118;-76
2022/04/26 07:04:33;;;;;;;18.05;5.57;;;;;;;;;;5037914;28;20057;-76
2022/04/26 07:07:00;;;;;;;13.52;5.65;;;;;;;;;;5048416;28;20049;-74
2022/04/26 07:09:26;;;;;;;9.02;5.35;;;;;;;;;;5047916;28;20139;-76
2022/04/26 07:11:53;;;;;;;13.20;5.60;;;;;;;;;;5046643;28;20092;-76
2022/04/26 07:14:20;;;;;;;20.00;5.93;;;;;;;;;;5047577;28;20081;-76
2022/04/26 07:16:50;;;;;;;11.82;5.43;;;;;;;;;;5043291;28;20089;-77
2022/04/26 07:19:19;;;;;;;16.07;5.33;;;;;;;;;;5047155;28;20058;-77
2022/04/26 07:21:47;;;;;;;16.02;5.45;;;;;;;;;;5031262;28;20143;-76
2022/04/26 07:24:30;;;;;;;11.30;4.75;;;;;;;;;;5046611;28;20141;-77
2022/04/26 07:26:57;;;;;;;11.75;4.68;;;;;;;;;;5045252;28;20112;-78
2022/04/26 07:29:23;;;;;;;15.35;6.20;;;;;;;;;;5046749;28;20496;-76
2022/04/26 07:31:49;;;;;;;11.95;4.97;;;;;;;;;;5046567;28;20103;-76
2022/04/26 07:34:21;;;;;;;11.30;4.63;;;;;;;;;;5026614;28;20050;-77
2022/04/26 07:36:49;;;;;;;10.70;4.50;;;;;;;;;;5044974;28;20053;-76
2022/04/26 07:39:17;;;;;;;10.02;4.40;;;;;;;;;;5043263;28;20085;-75
2022/04/26 07:41:45;;;;;;;11.90;4.90;;;;;;;;;;5045350;28;20120;-76
2022/04/26 07:44:12;;;;;;;11.57;5.30;;;;;;;;;;5046691;28;20141;-77
2022/04/26 07:46:38;;;;;;;8.63;4.18;;;;;;;;;;5044297;28;20084;-76
2022/04/26 07:49:05;;;;;;;11.88;4.80;;;;;;;;;;5038254;28;20049;-75
2022/04/26 07:51:32;;;;;;;11.30;4.30;;;;;;;;;;5046402;28;20108;-78
2022/04/26 07:53:59;;;;;;;10.98;4.38;;;;;;;;;;5046610;28;20076;-76
2022/04/26 07:56:27;;;;;;;16.42;4.15;;;;;;;;;;5038025;28;20107;-75
2022/04/26 07:58:54;;;;;;;10.13;4.15;;;;;;;;;;5043930;28;20057;-77
2022/04/26 08:01:20;;;;;;;12.95;4.30;;;;;;;;;;5043928;28;20053;-76
2022/04/26 08:03:47;;;;;;;9.48;3.67;;;;;;;;;;5045594;28;20072;-74
2022/04/26 08:06:14;;;;;;;15.75;4.30;;;;;;;;;;5044729;28;20053;-76
2022/04/26 08:08:40;;;;;;;12.23;4.30;;;;;;;;;;5046435;28;20151;-76
2022/04/26 08:11:11;;;;;;;11.27;4.10;;;;;;;;;;5046143;28;20828;-77
2022/04/26 08:13:39;;;;;;;9.48;3.50;;;;;;;;;;5050887;28;20084;-74
2022/04/26 08:16:12;;;;;;;14.85;4.53;;;;;;;;;;5048210;28;20563;-77
2022/04/26 08:18:39;;;;;;;9.50;4.10;;;;;;;;;;5044483;28;20160;-75
2022/04/26 08:21:06;;;;;;;10.27;3.50;;;;;;;;;;5048088;28;20084;-75
2022/04/26 08:27:22;;;;;;;8.48;3.90;;;;;;;;;;5047035;28;20057;-75
2022/04/26 08:29:14;;;;;;;11.38;3.83;;;;;;;;;;5042778;28;20171;-75
2022/04/26 08:31:42;;;;;;;14.10;3.97;;;;;;;;;;5044136;28;20057;-76
2022/04/26 08:34:08;;;;;;;11.30;3.80;;;;;;;;;;5037969;28;20049;-75
2022/04/26 08:36:35;;;;;;;10.38;4.13;;;;;;;;;;5047023;28;20132;-75
2022/04/26 08:39:02;;;;;;;10.90;3.70;;;;;;;;;;5047884;28;20132;-75
2022/04/26 08:41:29;;;;;;;8.77;3.55;;;;;;;;;;5051061;28;20466;-75
2022/04/26 08:43:55;;;;;;;7.32;3.67;;;;;;;;;;5069192;28;20053;-75
2022/04/26 08:50:59;;;;;;;8.15;3.20;;;;;;;;;;5053761;28;20096;-76
2022/04/26 08:51:58;;;;;;;9.13;4.35;;;;;;;;;;5046197;28;20108;-76
2022/04/26 08:54:25;;;;;;;11.48;3.95;;;;;;;;;;5041063;28;20057;-75
2022/04/26 08:56:51;;;;;;;11.32;3.75;;;;;;;;;;5048054;28;20489;-73
2022/04/26 08:59:18;;;;;;;7.63;3.75;;;;;;;;;;5048501;28;20061;-73
2022/04/26 09:01:44;;;;;;;11.32;4.43;;;;;;;;;;5047294;28;21107;-74
2022/04/26 09:04:14;;;;;;;10.23;3.72;;;;;;;;;;5038985;28;20049;-75
2022/04/26 09:06:45;;;;;;;17.65;4.28;;;;;;;;;;5044176;28;20061;-75
2022/04/26 09:09:16;;;;;;;8.68;3.80;;;;;;;;;;5049529;28;20053;-74
2022/04/26 09:11:43;;;;;;;6.97;3.30;;;;;;;;;;5048752;28;20053;-74
2022/04/26 09:14:29;;;;;;;5.80;3.40;;;;;;;;;;5046022;28;22665;-74
2022/04/26 09:17:07;;;;;;;8.45;3.42;;;;;;;;;;5046417;28;20058;-74
2022/04/26 09:19:49;;;;;;;6.00;3.50;;;;;;;;;;5043588;28;20057;-74
2022/04/26 09:22:25;;;;;;;10.38;3.90;;;;;;;;;;5045948;28;20482;-74
2022/04/26 09:25:18;;;;;;;9.63;3.90;;;;;;;;;;5048079;28;20077;-74
2022/04/26 09:27:45;;;;;;;6.93;3.78;;;;;;;;;;5029253;28;20053;-74
2022/04/26 09:30:13;;;;;;;7.78;3.55;;;;;;;;;;5037732;28;20081;-74
2022/04/26 09:32:43;;;;;;;10.00;3.70;;;;;;;;;;5060323;28;20053;-75
2022/04/26 09:35:22;;;;;;;8.90;3.70;;;;;;;;;;5043926;28;20139;-75
2022/04/26 09:37:49;;;;;;;8.85;3.47;;;;;;;;;;5038411;28;20085;-75
2022/04/26 09:40:26;;;;;;;11.07;4.25;;;;;;;;;;5036978;28;20529;-76
2022/04/26 09:42:52;;;;;;;9.07;4.25;;;;;;;;;;5045217;28;20167;-75
2022/04/26 09:45:18;;;;;;;8.90;3.95;;;;;;;;;;5043989;28;20191;-74
2022/04/26 09:47:45;;;;;;;9.73;3.83;;;;;;;;;;5052935;28;20053;-74
2022/04/26 09:50:15;;;;;;;9.45;3.63;;;;;;;;;;5046683;28;20488;-74
2022/04/26 09:52:42;;;;;;;8.93;3.85;;;;;;;;;;5045592;28;20064;-74
2022/04/26 09:55:09;;;;;;;8.38;3.95;;;;;;;;;;5030794;28;20728;-74
2022/04/26 09:57:36;;;;;;;9.27;4.20;;;;;;;;;;5047016;28;20136;-74
2022/04/26 10:00:09;;;;;;;8.75;3.97;;;;;;;;;;5044912;28;20432;-74
2022/04/26 10:02:40;;;;;;;8.38;4.15;;;;;;;;;;5047065;28;20053;-75
2022/04/26 10:05:07;;;;;;;8.98;3.65;;;;;;;;;;5043228;28;20054;-74
2022/04/26 10:07:40;;;;;;;8.68;4.20;;;;;;;;;;5046805;28;20084;-74
2022/04/26 10:10:06;;;;;;;9.70;4.00;;;;;;;;;;5045411;28;20060;-74
2022/04/26 10:12:33;;;;;;;9.05;3.80;;;;;;;;;;5047059;28;20077;-75
2022/04/26 10:15:01;;;;;;;7.10;3.35;;;;;;;;;;5038528;28;20060;-75
2022/04/26 10:17:32;;;;;;;9.75;3.47;;;;;;;;;;5038963;28;20053;-75
2022/04/26 10:20:02;;;;;;;11.10;4.00;;;;;;;;;;5045014;28;20135;-74
2022/04/26 10:22:48;;;;;;;11.93;4.03;;;;;;;;;;5046478;28;20061;-75
2022/04/26 10:25:15;;;;;;;8.02;3.90;;;;;;;;;;5045443;28;20053;-75
2022/04/26 10:27:41;;;;;;;10.90;4.13;;;;;;;;;;5041137;28;20054;-75
2022/04/26 10:30:08;;;;;;;7.13;3.75;;;;;;;;;;5045466;28;20049;-75
2022/04/26 10:32:38;;;;;;;8.35;3.72;;;;;;;;;;5046763;28;20409;-75
2022/04/26 10:35:28;;;;;;;6.28;3.00;;;;;;;;;;5045650;28;20470;-75
2022/04/26 10:38:06;;;;;;;7.07;2.83;;;;;;;;;;5022045;28;20137;-76
2022/04/26 10:40:53;;;;;;;6.47;2.90;;;;;;;;;;5044335;28;20085;-75
2022/04/26 10:43:19;;;;;;;6.32;2.80;;;;;;;;;;5043986;28;20096;-76
2022/04/26 10:46:05;;;;;;;6.22;2.83;;;;;;;;;;5036421;28;20049;-74
2022/04/26 10:48:31;;;;;;;5.63;2.65;;;;;;;;;;5042663;28;20058;-75
2022/04/26 10:51:18;;;;;;;6.30;2.70;;;;;;;;;;5045180;28;20053;-75
2022/04/26 10:53:47;;;;;;;6.95;2.90;;;;;;;;;;5041825;28;20108;-75
2022/04/26 10:56:13;;;;;;;7.43;2.88;;;;;;;;;;5044227;28;20506;-76
2022/04/26 10:58:49;;;;;;;13.23;2.45;;;;;;;;;;5038601;28;20093;-74
2022/04/26 11:01:16;;;;;;;6.28;2.72;;;;;;;;;;5044964;28;20137;-74
2022/04/26 11:03:52;;;;;;;6.22;2.80;;;;;;;;;;5063572;28;20130;-75
2022/04/26 11:06:37;;;;;;;7.40;2.65;;;;;;;;;;5065028;28;20056;-75
2022/04/26 11:09:07;;;;;;;7.82;2.90;;;;;;;;;;5063830;28;20053;-75
2022/04/26 11:11:48;;;;;;;6.72;2.50;;;;;;;;;;5065990;28;20132;-75
2022/04/26 11:14:22;;;;;;;5.50;2.38;;;;;;;;;;5059697;28;20053;-75
2022/04/26 11:17:02;;;;;;;5.70;2.45;;;;;;;;;;5065644;28;20433;-75
2022/04/26 11:19:30;;;;;;;6.45;2.80;;;;;;;;;;5056141;28;20049;-75
2022/04/26 11:22:07;;;;;;;6.65;2.70;;;;;;;;;;5068885;28;20052;-75
2022/04/26 11:30:05;;;;;;;6.50;2.60;;;;;;;;;;5059635;28;20569;-74
2022/04/26 11:32:34;;;;;;;6.97;3.45;;;;;;;;;;5064194;28;20053;-75
2022/04/26 11:35:01;;;;;;;5.15;2.75;;;;;;;;;;5062482;28;20103;-75
2022/04/26 11:37:27;;;;;;;5.78;2.65;;;;;;;;;;5056861;28;20354;-75
2022/04/26 11:39:53;;;;;;;5.53;2.30;;;;;;;;;;5060604;28;20084;-74
2022/04/26 11:42:20;;;;;;;6.07;2.65;;;;;;;;;;5058698;28;20049;-74
2022/04/26 11:45:06;;;;;;;6.00;2.80;;;;;;;;;;5055230;28;20114;-76
2022/04/26 11:48:01;;;;;;;5.93;2.47;;;;;;;;;;5057736;28;20049;-76
2022/04/26 11:50:29;;;;;;;5.60;2.40;;;;;;;;;;5056595;28;20088;-76
2022/04/26 11:53:08;;;;;;;6.07;2.45;;;;;;;;;;5056626;28;20148;-75
2022/04/26 11:55:36;;;;;;;4.87;2.30;;;;;;;;;;5044323;28;20132;-75
2022/04/26 11:58:06;;;;;;;6.38;2.40;;;;;;;;;;5059739;28;20488;-76
2022/04/26 12:00:33;;;;;;;5.00;1.88;;;;;;;;;;5066630;28;20127;-76
2022/04/26 12:03:00;;;;;;;4.85;1.98;;;;;;;;;;5059359;28;20140;-75
2022/04/26 12:05:26;;;;;;;8.65;2.42;;;;;;;;;;5067033;28;20593;-75
2022/04/26 12:07:53;;;;;;;7.65;2.78;;;;;;;;;;5065346;28;20132;-75
2022/04/26 12:10:32;;;;;;;6.22;2.28;;;;;;;;;;5063086;28;20162;-75
2022/04/26 12:13:02;;;;;;;4.87;2.20;;;;;;;;;;5065782;28;20049;-75
2022/04/26 12:15:29;;;;;;;9.20;2.42;;;;;;;;;;5066266;28;20256;-75
2022/04/26 12:18:03;;;;;;;8.82;2.30;;;;;;;;;;5066699;28;20140;-76
2022/04/26 12:20:30;;;;;;;4.78;2.10;;;;;;;;;;5062594;28;20130;-75
2022/04/26 12:22:57;;;;;;;5.40;2.35;;;;;;;;;;5065677;28;20531;-76
2022/04/26 12:25:23;;;;;;;6.43;2.15;;;;;;;;;;5063973;28;20248;-75
2022/04/26 12:28:03;;;;;;;5.30;2.42;;;;;;;;;;5050636;28;20061;-75
2022/04/26 12:30:30;;;;;;;6.72;2.58;;;;;;;;;;5046418;28;20061;-77
2022/04/26 12:32:56;;;;;;;6.97;2.38;;;;;;;;;;5065423;28;20543;-75
2022/04/26 12:35:23;;;;;;;6.78;2.63;;;;;;;;;;5054349;28;20151;-74
2022/04/26 12:38:03;;;;;;;5.97;2.40;;;;;;;;;;5063734;28;20079;-74
2022/04/26 12:40:29;;;;;;;5.03;2.30;;;;;;;;;;5066036;28;20060;-76
2022/04/26 12:42:57;;;;;;;5.82;2.40;;;;;;;;;;5064177;28;20103;-75
2022/04/26 12:45:24;;;;;;;5.80;2.40;;;;;;;;;;5060413;28;20073;-75
2022/04/26 12:51:20;;;;;;;4.70;2.30;;;;;;;;;;5066562;28;20049;-75
2022/04/26 12:54:05;;;;;;;4.32;2.22;;;;;;;;;;5062308;28;20059;-76
2022/04/26 12:56:31;;;;;;;8.05;2.95;;;;;;;;;;5064954;28;20107;-74
2022/04/26 12:58:58;;;;;;;7.93;2.65;;;;;;;;;;5068968;28;20630;-75
2022/04/26 13:01:25;;;;;;;6.00;2.28;;;;;;;;;;5056980;28;20558;-76
2022/04/26 13:03:58;;;;;;;5.30;2.40;;;;;;;;;;5059060;28;20053;-76
2022/04/26 13:06:25;;;;;;;4.95;2.42;;;;;;;;;;5058925;28;20080;-75
2022/04/26 13:09:11;;;;;;;4.43;2.28;;;;;;;;;;5064274;28;20045;-75
2022/04/26 13:11:39;;;;;;;6.32;2.10;;;;;;;;;;5066126;28;20427;-74
2022/04/26 13:14:05;;;;;;;4.90;2.10;;;;;;;;;;5069911;28;20045;-75
2022/04/26 13:16:52;;;;;;;4.90;2.15;;;;;;;;;;5067076;28;20056;-74
2022/04/26 13:19:18;;;;;;;4.70;2.30;;;;;;;;;;5062395;28;20561;-75
2022/04/26 13:21:45;;;;;;;4.72;2.20;;;;;;;;;;5066629;28;20102;-75
2022/04/26 13:24:11;;;;;;;5.05;2.10;;;;;;;;;;5068306;28;20060;-75
2022/04/26 13:26:38;;;;;;;6.40;1.98;;;;;;;;;;5068081;28;20091;-75
2022/04/26 13:29:05;;;;;;;5.57;2.13;;;;;;;;;;5061373;28;20144;-76
2022/04/26 13:31:32;;;;;;;4.95;2.00;;;;;;;;;;5064341;28;20053;-76
2022/04/26 13:34:02;;;;;;;5.38;2.30;;;;;;;;;;5063812;28;20052;-76
2022/04/26 13:36:49;;;;;;;5.40;1.90;;;;;;;;;;5053341;28;20691;-75
2022/04/26 13:39:15;;;;;;;5.40;2.10;;;;;;;;;;5068030;28;20438;-75
2022/04/26 13:41:41;;;;;;;4.40;1.92;;;;;;;;;;5065026;28;20130;-75
2022/04/26 13:44:08;;;;;;;4.75;1.80;;;;;;;;;;5063470;28;20196;-75
2022/04/26 13:46:35;;;;;;;4.07;2.10;;;;;;;;;;5082877;28;20596;-76
2022/04/26 13:49:03;;;;;;;5.38;2.35;;;;;;;;;;5068156;28;20088;-75
2022/04/26 13:51:29;;;;;;;5.07;2.42;;;;;;;;;;5062879;28;20083;-76
2022/04/26 13:53:56;;;;;;;4.63;2.03;;;;;;;;;;5061213;28;20140;-75
2022/04/26 13:56:23;;;;;;;4.10;2.00;;;;;;;;;;5066711;28;20057;-76
2022/04/26 13:58:50;;;;;;;5.13;2.33;;;;;;;;;;5067186;28;20077;-76
2022/04/26 14:01:16;;;;;;;7.07;2.40;;;;;;;;;;5062940;28;20647;-76
2022/04/26 14:03:42;;;;;;;4.35;2.20;;;;;;;;;;5066229;28;20427;-76
2022/04/26 14:06:10;;;;;;;4.72;2.17;;;;;;;;;;5066003;28;20061;-75
2022/04/26 14:08:37;;;;;;;4.32;2.10;;;;;;;;;;5057951;28;20139;-76
2022/04/26 14:11:03;;;;;;;6.43;2.20;;;;;;;;;;5068200;28;20064;-76
2022/04/26 14:21:46;;;;;;;7.05;2.15;;;;;;;;;;5065778;28;20124;-77
2022/04/26 14:21:49;;;;;;;4.20;2.05;;;;;;;;;;5069532;28;20081;-77
2022/04/26 14:24:15;;;;;;;4.32;1.88;;;;;;;;;;5066590;28;20053;-77
2022/04/26 14:26:42;;;;;;;4.30;1.80;;;;;;;;;;5064101;28;20523;-76
2022/04/26 14:29:09;;;;;;;3.85;1.98;;;;;;;;;;5067637;28;20107;-77
2022/04/26 14:31:42;;;;;;;4.35;1.60;;;;;;;;;;5067112;28;20480;-76
2022/04/26 14:34:08;;;;;;;4.78;1.85;;;;;;;;;;5068147;28;20060;-76
2022/04/26 14:36:35;;;;;;;3.70;1.60;;;;;;;;;;5066281;28;20136;-77
2022/04/26 14:39:20;;;;;;;4.25;1.77;;;;;;;;;;5065336;28;20523;-76
2022/04/26 14:41:46;;;;;;;5.18;1.65;;;;;;;;;;5067895;28;20376;-76
2022/04/26 14:44:13;;;;;;;5.35;1.65;;;;;;;;;;5066464;28;20099;-77
2022/04/26 14:46:39;;;;;;;4.15;1.33;;;;;;;;;;5067730;28;20536;-77
2022/04/26 14:49:06;;;;;;;5.53;1.63;;;;;;;;;;5065396;28;20755;-76
2022/04/26 14:51:32;;;;;;;4.00;1.55;;;;;;;;;;5063085;28;20133;-77
2022/04/26 14:53:59;;;;;;;5.20;1.40;;;;;;;;;;5065465;28;20136;-76
2022/04/26 14:56:25;;;;;;;3.47;1.30;;;;;;;;;;5066338;28;20053;-77
2022/04/26 14:59:12;;;;;;;3.92;1.50;;;;;;;;;;5063553;28;20049;-77
2022/04/26 15:01:40;;;;;;;3.65;1.48;;;;;;;;;;5064287;28;20060;-77
2022/04/26 15:04:07;;;;;;;4.28;1.88;;;;;;;;;;5064538;28;20057;-77
2022/04/26 15:06:33;;;;;;;5.15;1.48;;;;;;;;;;5065289;28;20092;-77
2022/04/26 15:11:45;;;;;;;6.15;1.52;;;;;;;;;;5066052;28;20126;-77
2022/04/26 15:16:56;;;;;;;5.90;1.92;;;;;;;;;;5056149;28;20165;-77
2022/04/26 15:19:22;;;;;;;5.10;2.05;;;;;;;;;;5057339;28;20050;-76
2022/04/26 15:21:49;;;;;;;5.38;2.10;;;;;;;;;;5061512;28;20053;-77
2022/04/26 15:24:15;;;;;;;4.90;1.92;;;;;;;;;;5061090;28;20080;-77
2022/04/26 15:26:42;;;;;;;5.43;2.53;;;;;;;;;;5064250;28;20132;-78
2022/04/26 15:29:08;;;;;;;4.20;2.10;;;;;;;;;;5063485;28;20143;-76
2022/04/26 15:31:34;;;;;;;8.73;2.65;;;;;;;;;;5061858;28;20128;-76
2022/04/26 15:34:02;;;;;;;5.75;2.60;;;;;;;;;;5069222;28;20506;-77
2022/04/26 15:36:28;;;;;;;9.82;3.15;;;;;;;;;;5067772;28;20049;-76
2022/04/26 15:38:58;;;;;;;6.47;2.33;;;;;;;;;;5064593;28;20057;-77
2022/04/26 15:41:26;;;;;;;5.32;2.72;;;;;;;;;;5066500;28;20084;-77
2022/04/26 15:43:53;;;;;;;5.05;2.58;;;;;;;;;;5069721;28;20060;-75
2022/04/26 15:46:39;;;;;;;5.25;2.60;;;;;;;;;;5071711;28;20127;-77
2022/04/26 15:49:05;;;;;;;5.40;2.42;;;;;;;;;;5070917;28;20060;-76
2022/04/26 15:51:32;;;;;;;4.55;2.35;;;;;;;;;;5063514;28;20170;-77
2022/04/26 15:54:00;;;;;;;6.35;2.30;;;;;;;;;;5069102;28;20056;-77
2022/04/26 15:56:26;;;;;;;4.55;2.40;;;;;;;;;;5060784;28;20069;-77
2022/04/26 15:58:52;;;;;;;5.15;2.42;;;;;;;;;;5065463;28;20539;-77
2022/04/26 16:01:19;;;;;;;6.57;2.83;;;;;;;;;;5072250;28;20083;-77
2022/04/26 16:03:45;;;;;;;5.00;2.42;;;;;;;;;;5067337;28;20126;-77
2022/04/26 16:06:12;;;;;;;4.68;2.35;;;;;;;;;;5067009;28;20554;-76
2022/04/26 16:08:38;;;;;;;5.80;2.60;;;;;;;;;;5057639;28;20067;-77
2022/04/26 16:22:10;;;;;;;7.57;2.53;;;;;;;;;;5073348;28;20091;-76
2022/04/26 16:24:38;;;;;;;8.88;2.83;;;;;;;;;;5069061;28;20406;-77
2022/04/26 16:27:08;;;;;;;7.38;2.53;;;;;;;;;;5065200;28;20051;-76
2022/04/26 16:29:34;;;;;;;6.40;2.53;;;;;;;;;;5066976;28;20110;-77
2022/04/26 16:32:01;;;;;;;6.53;2.22;;;;;;;;;;5077890;28;20139;-77
2022/04/26 16:34:27;;;;;;;5.88;2.25;;;;;;;;;;5088605;28;20060;-75
2022/04/26 16:36:54;;;;;;;5.68;2.58;;;;;;;;;;5073027;28;20114;-76
2022/04/26 16:39:20;;;;;;;5.78;2.45;;;;;;;;;;5069428;28;20137;-77
2022/04/26 16:41:47;;;;;;;7.63;2.85;;;;;;;;;;5065462;28;20084;-77
2022/04/26 16:44:13;;;;;;;6.80;2.50;;;;;;;;;;5076540;28;20077;-78
2022/04/26 16:46:43;;;;;;;5.00;2.35;;;;;;;;;;5069229;28;20135;-78
2022/04/26 16:49:09;;;;;;;6.38;2.80;;;;;;;;;;5061231;28;20102;-78
2022/04/26 16:51:36;;;;;;;5.82;2.88;;;;;;;;;;5066931;28;20080;-77
2022/04/26 16:54:07;;;;;;;6.32;2.47;;;;;;;;;;5060725;28;20049;-76
2022/04/26 16:56:35;;;;;;;6.13;2.60;;;;;;;;;;5065766;28;20053;-75
2022/04/26 16:59:03;;;;;;;5.50;2.60;;;;;;;;;;5066184;28;20832;-77
2022/04/26 17:01:30;;;;;;;5.25;2.30;;;;;;;;;;5052413;28;20057;-77
2022/04/26 17:03:57;;;;;;;7.85;2.40;;;;;;;;;;5071830;28;20055;-79
2022/04/26 17:06:28;;;;;;;5.43;2.20;;;;;;;;;;5066531;28;20053;-76
2022/04/26 17:08:55;;;;;;;8.15;2.70;;;;;;;;;;5067878;28;20056;-77
2022/04/26 17:14:11;;;;;;;7.47;2.90;;;;;;;;;;5069951;28;20559;-79
2022/04/26 17:16:37;;;;;;;7.00;2.92;;;;;;;;;;5063217;28;20052;-78
2022/04/26 17:19:04;;;;;;;5.35;2.70;;;;;;;;;;5067379;28;20144;-77
2022/04/26 17:21:32;;;;;;;6.78;2.95;;;;;;;;;;5066811;28;20080;-77
2022/04/26 17:23:58;;;;;;;6.97;2.80;;;;;;;;;;5067788;28;20497;-77
2022/04/26 17:26:25;;;;;;;7.30;2.97;;;;;;;;;;5064684;28;20053;-77
2022/04/26 17:28:51;;;;;;;6.13;2.80;;;;;;;;;;5068115;28;20559;-77
2022/04/26 17:31:18;;;;;;;6.82;3.30;;;;;;;;;;5060595;28;20088;-77
2022/04/26 17:33:46;;;;;;;10.25;3.10;;;;;;;;;;5060370;28;20064;-77
2022/04/26 17:36:12;;;;;;;9.05;3.38;;;;;;;;;;5065734;28;20140;-77
2022/04/26 17:38:39;;;;;;;6.78;2.90;;;;;;;;;;5062211;28;20559;-77
2022/04/26 17:41:05;;;;;;;6.32;3.20;;;;;;;;;;5063975;28;20053;-76
2022/04/26 17:43:33;;;;;;;7.82;3.15;;;;;;;;;;5063636;28;20162;-77
2022/04/26 17:45:59;;;;;;;11.30;3.58;;;;;;;;;;5059325;28;20049;-78
2022/04/26 17:48:26;;;;;;;7.60;3.13;;;;;;;;;;5064060;28;20049;-77
2022/04/26 17:50:53;;;;;;;8.98;3.13;;;;;;;;;;5063376;28;20559;-77
2022/04/26 17:58:49;;;;;;;5.32;2.60;;;;;;;;;;5068483;28;20546;-77
2022/04/26 18:01:16;;;;;;;9.23;3.33;;;;;;;;;;5066449;28;20581;-81
2022/04/26 18:03:43;;;;;;;11.23;3.38;;;;;;;;;;5066924;28;20144;-78
2022/04/26 18:06:10;;;;;;;12.98;3.85;;;;;;;;;;5062700;28;20049;-78
2022/04/26 18:08:38;;;;;;;9.23;3.00;;;;;;;;;;5068082;28;20095;-78
2022/04/26 18:11:04;;;;;;;6.50;3.20;;;;;;;;;;5064109;28;20053;-79
2022/04/26 18:13:34;;;;;;;7.68;3.15;;;;;;;;;;5065443;28;20241;-77
2022/04/26 18:16:02;;;;;;;6.10;3.20;;;;;;;;;;5065407;28;20439;-78
2022/04/26 18:18:30;;;;;;;6.53;3.00;;;;;;;;;;5077891;28;20049;-78
2022/04/26 18:20:58;;;;;;;8.18;3.10;;;;;;;;;;5063267;28;20478;-78
2022/04/26 18:23:25;;;;;;;8.32;3.45;;;;;;;;;;5064317;28;20064;-78
2022/04/26 18:26:36;;;;;;;9.43;3.20;;;;;;;;;;5054514;28;20126;-78
2022/04/26 18:28:46;;;;;;;6.25;3.05;;;;;;;;;;5067929;28;20052;-77
2022/04/26 18:31:13;;;;;;;7.53;3.10;;;;;;;;;;5075968;28;20148;-77
2022/04/26 18:33:39;;;;;;;9.80;3.90;;;;;;;;;;5062835;28;20057;-76
2022/04/26 18:36:08;;;;;;;10.63;3.22;;;;;;;;;;5064859;28;20060;-78
2022/04/26 18:38:35;;;;;;;8.23;3.25;;;;;;;;;;5069268;28;20053;-78
2022/04/26 18:41:02;;;;;;;8.20;2.95;;;;;;;;;;5060887;28;20344;-78
2022/04/26 18:43:28;;;;;;;7.38;3.10;;;;;;;;;;5051488;28;20088;-77
2022/04/26 18:45:55;;;;;;;7.05;3.10;;;;;;;;;;5062324;28;20547;-78
2022/04/26 18:48:21;;;;;;;8.05;3.38;;;;;;;;;;5066791;28;20060;-77
2022/04/26 18:50:48;;;;;;;9.52;3.40;;;;;;;;;;5067426;28;20114;-78
2022/04/26 18:53:14;;;;;;;7.38;3.40;;;;;;;;;;5068105;28;20144;-78
2022/04/26 18:55:41;;;;;;;8.63;3.60;;;;;;;;;;5064914;28;20102;-78
2022/04/26 18:58:08;;;;;;;8.30;3.47;;;;;;;;;;5062634;28;20215;-78
2022/04/26 19:00:36;;;;;;;8.38;3.55;;;;;;;;;;5056376;28;20092;-78
2022/04/26 19:03:03;;;;;;;9.68;3.30;;;;;;;;;;5066073;28;20053;-78
2022/04/26 19:05:30;;;;;;;9.77;3.17;;;;;;;;;;5066086;28;20083;-79
2022/04/26 19:07:57;;;;;;;8.63;3.05;;;;;;;;;;5065476;28;20061;-78
2022/04/26 19:13:08;;;;;;;9.18;3.17;;;;;;;;;;5060979;28;20085;-79